Time;durP1;ratioP1;P1;durP2;ratioP2;P2;SDS_P1;SDS_P2;PMS_P1;PMS_P2;Temp;Humidity;BMP_temperature;BMP_pressure;BME280_temperature;BME280_humidity;BME280_pressure;Samples;Min_cycle;Max_cycle;Signal;HPM_P1;HPM_P2
2024/03/02 00:00:08;;;;;;;;;;;8.40;99.90;;;;;;2060872;28;20343;-74
2024/03/02 00:01:13;;;;;;;;;;;8.40;99.90;;;;;;2056234;28;19996;-75
2024/03/02 00:02:14;;;;;;;;;;;8.40;99.90;;;;;;2057713;28;19914;-74
2024/03/02 00:03:15;;;;;;;;;;;8.40;99.90;;;;;;2059171;28;19980;-74
2024/03/02 00:04:17;;;;;;;;;;;8.40;99.90;;;;;;2047925;28;20107;-74
2024/03/02 00:05:21;;;;;;;;;;;8.40;99.90;;;;;;2054882;28;19909;-75
2024/03/02 00:06:22;;;;;;;;;;;8.40;99.90;;;;;;2056874;28;20439;-75
2024/03/02 00:07:24;;;;;;;;;;;8.40;99.90;;;;;;2060433;28;20003;-76
2024/03/02 00:08:28;;;;;;;;;;;8.40;99.90;;;;;;2060690;28;20431;-74
2024/03/02 00:09:29;;;;;;;;;;;8.40;99.90;;;;;;2059995;28;19984;-74
2024/03/02 00:10:41;;;;;;;;;;;8.50;99.90;;;;;;2060227;28;20360;-74
2024/03/02 00:11:42;;;;;;;;;;;8.40;99.90;;;;;;2054623;28;19910;-74
2024/03/02 00:12:46;;;;;;;;;;;8.40;99.90;;;;;;2057917;28;19917;-74
2024/03/02 00:13:47;;;;;;;;;;;8.40;99.90;;;;;;2056728;28;19913;-74
2024/03/02 00:14:47;;;;;;;;;;;8.40;99.90;;;;;;2056593;28;20277;-76
2024/03/02 00:15:48;;;;;;;;;;;8.40;99.90;;;;;;2059944;28;19992;-75
2024/03/02 00:16:48;;;;;;;;;;;8.40;99.90;;;;;;2060670;28;19914;-74
2024/03/02 00:17:55;;;;;;;;;;;8.40;99.90;;;;;;2060367;28;19921;-73
2024/03/02 00:18:56;;;;;;;;;;;8.40;99.90;;;;;;2060458;28;19992;-75
2024/03/02 00:19:57;;;;;;;;;;;8.50;99.90;;;;;;2057143;28;19914;-73
2024/03/02 00:20:57;;;;;;;;;;;8.50;99.90;;;;;;2060268;28;19909;-74
2024/03/02 00:22:00;;;;;;;;;;;8.50;99.90;;;;;;2060258;28;19920;-74
2024/03/02 00:23:02;;;;;;;;;;;8.50;99.90;;;;;;2056881;28;19916;-74
2024/03/02 00:24:23;;;;;;;;;;;8.50;99.90;;;;;;2060720;28;20020;-74
2024/03/02 00:25:24;;;;;;;;;;;8.50;99.90;;;;;;2059326;28;20023;-74
2024/03/02 00:26:24;;;;;;;;;;;8.60;99.90;;;;;;2059690;28;20023;-75
2024/03/02 00:27:25;;;;;;;;;;;8.60;99.90;;;;;;2056620;28;19910;-75
2024/03/02 00:28:35;;;;;;;;;;;8.70;99.90;;;;;;2056711;28;19910;-74
2024/03/02 00:29:35;;;;;;;;;;;8.60;99.90;;;;;;2057596;28;19961;-75
2024/03/02 00:30:52;;;;;;;;;;;8.60;99.90;;;;;;2060056;28;19910;-75
2024/03/02 00:31:53;;;;;;;;;;;8.60;99.90;;;;;;2056453;28;20360;-75
2024/03/02 00:32:53;;;;;;;;;;;8.60;99.90;;;;;;2056795;28;19945;-74
2024/03/02 00:33:54;;;;;;;;;;;8.60;99.90;;;;;;2057012;28;19997;-74
2024/03/02 00:34:54;;;;;;;;;;;8.60;99.90;;;;;;2055693;28;19914;-74
2024/03/02 00:35:55;;;;;;;;;;;8.60;99.90;;;;;;2060001;28;20000;-75
2024/03/02 00:36:57;;;;;;;;;;;8.60;99.90;;;;;;2060095;28;19953;-74
2024/03/02 00:37:58;;;;;;;;;;;8.60;99.90;;;;;;2056338;28;19918;-74
2024/03/02 00:38:59;;;;;;;;;;;8.70;99.90;;;;;;2056579;28;19920;-74
2024/03/02 00:39:59;;;;;;;;;;;8.70;99.90;;;;;;2060237;28;19914;-75
2024/03/02 00:41:03;;;;;;;;;;;8.80;99.90;;;;;;2059951;28;19952;-74
2024/03/02 00:42:05;;;;;;;;;;;8.80;99.90;;;;;;2059902;28;19920;-75
2024/03/02 00:43:05;;;;;;;;;;;8.70;99.90;;;;;;2060271;28;19965;-75
2024/03/02 00:44:07;;;;;;;;;;;8.70;99.90;;;;;;2060308;28;19917;-74
2024/03/02 00:45:07;;;;;;;;;;;8.70;99.90;;;;;;2060214;28;19912;-75
2024/03/02 00:46:08;;;;;;;;;;;8.70;99.90;;;;;;2056842;28;19933;-74
2024/03/02 00:47:09;;;;;;;;;;;8.70;99.90;;;;;;2060028;28;20423;-75
2024/03/02 00:48:09;;;;;;;;;;;8.60;99.90;;;;;;2043655;29;20285;-74
2024/03/02 00:49:19;;;;;;;;;;;8.60;99.90;;;;;;2050964;28;19910;-75
2024/03/02 00:50:20;;;;;;;;;;;8.60;99.90;;;;;;2054177;28;20060;-75
2024/03/02 00:51:21;;;;;;;;;;;8.60;99.90;;;;;;2060654;28;19913;-74
2024/03/02 00:52:21;;;;;;;;;;;8.60;99.90;;;;;;2057742;28;20373;-74
2024/03/02 00:53:25;;;;;;;;;;;8.60;99.90;;;;;;2058723;28;19909;-74
2024/03/02 00:54:26;;;;;;;;;;;8.60;99.90;;;;;;2059972;28;19910;-74
2024/03/02 00:55:26;;;;;;;;;;;8.60;99.90;;;;;;2060751;28;19918;-74
2024/03/02 00:56:27;;;;;;;;;;;8.60;99.90;;;;;;2057925;28;19918;-74
2024/03/02 00:57:29;;;;;;;;;;;8.60;99.90;;;;;;2058346;28;19913;-75
2024/03/02 00:58:30;;;;;;;;;;;8.60;99.90;;;;;;2060548;28;19922;-74
2024/03/02 00:59:31;;;;;;;;;;;8.60;99.90;;;;;;2059547;28;20032;-74
2024/03/02 01:00:32;;;;;;;;;;;8.60;99.90;;;;;;2059768;28;19953;-74
2024/03/02 01:01:32;;;;;;;;;;;8.60;99.90;;;;;;2052298;28;19910;-73
2024/03/02 01:02:33;;;;;;;;;;;8.60;99.90;;;;;;2058738;28;20438;-73
2024/03/02 01:03:34;;;;;;;;;;;8.60;99.90;;;;;;2055580;28;20474;-74
2024/03/02 01:04:34;;;;;;;;;;;8.60;99.90;;;;;;2056524;28;20373;-75
2024/03/02 01:05:35;;;;;;;;;;;8.60;99.90;;;;;;2059631;28;19928;-73
2024/03/02 01:06:36;;;;;;;;;;;8.60;99.90;;;;;;2054587;28;20420;-73
2024/03/02 01:07:37;;;;;;;;;;;8.70;99.90;;;;;;2048275;28;19976;-73
2024/03/02 01:08:38;;;;;;;;;;;8.60;99.90;;;;;;2060110;28;20327;-73
2024/03/02 01:09:39;;;;;;;;;;;8.70;99.90;;;;;;2055849;28;19914;-73
2024/03/02 01:10:39;;;;;;;;;;;8.70;99.90;;;;;;2056335;28;20336;-72
2024/03/02 01:11:40;;;;;;;;;;;8.70;99.90;;;;;;2059428;28;19964;-75
2024/03/02 01:12:40;;;;;;;;;;;8.70;99.90;;;;;;2061092;28;19936;-74
2024/03/02 01:13:41;;;;;;;;;;;8.70;99.90;;;;;;2059239;28;19913;-74
2024/03/02 01:14:41;;;;;;;;;;;8.70;99.90;;;;;;2060462;28;19914;-74
2024/03/02 01:15:42;;;;;;;;;;;8.70;99.90;;;;;;2059908;28;19920;-73
2024/03/02 01:16:42;;;;;;;;;;;8.70;99.90;;;;;;2056510;28;20045;-73
2024/03/02 01:17:43;;;;;;;;;;;8.70;99.90;;;;;;2059792;28;20360;-74
2024/03/02 01:18:43;;;;;;;;;;;8.70;99.90;;;;;;2056268;28;20008;-74
2024/03/02 01:19:44;;;;;;;;;;;8.70;99.90;;;;;;2056002;28;20416;-74
2024/03/02 01:20:45;;;;;;;;;;;8.70;99.90;;;;;;2055401;28;19948;-72
2024/03/02 01:21:45;;;;;;;;;;;8.60;99.90;;;;;;2055412;28;20111;-72
2024/03/02 01:22:47;;;;;;;;;;;8.70;99.90;;;;;;2060030;28;19964;-73
2024/03/02 01:23:48;;;;;;;;;;;8.70;99.90;;;;;;2060416;28;20545;-75
2024/03/02 01:24:49;;;;;;;;;;;8.60;99.90;;;;;;2059806;28;19953;-75
2024/03/02 01:25:50;;;;;;;;;;;8.60;99.90;;;;;;2059794;28;19913;-74
2024/03/02 01:26:50;;;;;;;;;;;8.60;99.90;;;;;;2056741;28;19914;-75
2024/03/02 01:27:51;;;;;;;;;;;8.60;99.90;;;;;;2055103;28;19910;-75
2024/03/02 01:28:51;;;;;;;;;;;8.60;99.90;;;;;;2058687;28;19920;-73
2024/03/02 01:29:52;;;;;;;;;;;8.60;99.90;;;;;;2056946;28;20260;-73
2024/03/02 01:30:52;;;;;;;;;;;8.60;99.90;;;;;;2050409;28;19975;-72
2024/03/02 01:31:53;;;;;;;;;;;8.60;99.90;;;;;;2060016;28;19916;-74
2024/03/02 01:32:54;;;;;;;;;;;8.60;99.90;;;;;;2047635;28;19914;-73
2024/03/02 01:33:54;;;;;;;;;;;8.50;99.90;;;;;;2054953;28;19949;-74
2024/03/02 01:34:55;;;;;;;;;;;8.50;99.90;;;;;;2055955;28;20170;-73
2024/03/02 01:35:55;;;;;;;;;;;8.40;99.90;;;;;;2060179;28;20008;-73
2024/03/02 01:36:56;;;;;;;;;;;8.50;99.90;;;;;;2056101;28;20392;-75
2024/03/02 01:37:56;;;;;;;;;;;8.50;99.90;;;;;;2059615;28;20300;-75
2024/03/02 01:38:57;;;;;;;;;;;8.50;99.90;;;;;;2059925;28;20264;-74
2024/03/02 01:39:58;;;;;;;;;;;8.50;99.90;;;;;;2055867;28;19949;-75
2024/03/02 01:40:59;;;;;;;;;;;8.50;99.90;;;;;;2060004;28;19933;-73
2024/03/02 01:41:59;;;;;;;;;;;8.50;99.90;;;;;;2059844;28;19949;-73
2024/03/02 01:43:00;;;;;;;;;;;8.60;99.90;;;;;;2060210;28;20446;-72
2024/03/02 01:44:01;;;;;;;;;;;8.60;99.90;;;;;;2058388;28;19909;-75
2024/03/02 01:45:02;;;;;;;;;;;8.60;99.90;;;;;;2056929;28;19914;-73
2024/03/02 01:46:02;;;;;;;;;;;8.60;99.90;;;;;;2057567;28;19920;-74
2024/03/02 01:47:03;;;;;;;;;;;8.70;99.90;;;;;;2056761;28;19975;-73
2024/03/02 01:48:04;;;;;;;;;;;8.70;99.90;;;;;;2057836;28;20374;-73
2024/03/02 01:49:05;;;;;;;;;;;8.70;99.90;;;;;;2059857;28;20042;-73
2024/03/02 01:50:07;;;;;;;;;;;8.70;99.90;;;;;;2057992;28;19925;-75
2024/03/02 01:51:07;;;;;;;;;;;8.70;99.90;;;;;;2059487;28;20367;-75
2024/03/02 01:52:08;;;;;;;;;;;8.60;99.90;;;;;;2056295;28;19914;-73
2024/03/02 01:53:08;;;;;;;;;;;8.60;99.90;;;;;;2057862;28;19913;-75
2024/03/02 01:54:09;;;;;;;;;;;8.60;99.90;;;;;;2057113;28;19917;-75
2024/03/02 01:55:09;;;;;;;;;;;8.60;99.90;;;;;;2059330;28;20440;-75
2024/03/02 01:56:12;;;;;;;;;;;8.50;99.90;;;;;;2057539;28;19997;-75
2024/03/02 01:57:13;;;;;;;;;;;8.60;99.90;;;;;;2058258;28;19920;-75
2024/03/02 01:58:13;;;;;;;;;;;8.60;99.90;;;;;;2055270;28;20404;-75
2024/03/02 01:59:14;;;;;;;;;;;8.50;99.90;;;;;;2059335;28;20083;-75
2024/03/02 02:00:15;;;;;;;;;;;8.50;99.90;;;;;;2059712;28;19917;-73
2024/03/02 02:01:16;;;;;;;;;;;8.50;99.90;;;;;;2060079;28;20462;-75
2024/03/02 02:02:17;;;;;;;;;;;8.50;99.90;;;;;;2059136;28;19913;-75
2024/03/02 02:03:17;;;;;;;;;;;8.50;99.90;;;;;;2059248;28;20071;-73
2024/03/02 02:04:18;;;;;;;;;;;8.50;99.90;;;;;;2060160;28;20522;-73
2024/03/02 02:05:18;;;;;;;;;;;8.50;99.90;;;;;;2056305;28;20395;-74
2024/03/02 02:06:19;;;;;;;;;;;8.50;99.90;;;;;;2055890;28;20155;-74
2024/03/02 02:07:20;;;;;;;;;;;8.50;99.90;;;;;;2059207;28;19914;-73
2024/03/02 02:08:20;;;;;;;;;;;8.50;99.90;;;;;;2059885;28;19972;-74
2024/03/02 02:09:21;;;;;;;;;;;8.50;99.90;;;;;;2055199;28;19910;-73
2024/03/02 02:10:21;;;;;;;;;;;8.60;99.90;;;;;;2058942;28;19914;-73
2024/03/02 02:11:22;;;;;;;;;;;8.60;99.90;;;;;;2059005;28;19964;-74
2024/03/02 02:12:22;;;;;;;;;;;8.60;99.90;;;;;;2059045;28;19914;-74
2024/03/02 02:13:23;;;;;;;;;;;8.60;99.90;;;;;;2059063;28;20408;-74
2024/03/02 02:14:23;;;;;;;;;;;8.60;99.90;;;;;;2056156;28;20238;-74
2024/03/02 02:15:30;;;;;;;;;;;8.70;99.90;;;;;;2058778;28;19920;-74
2024/03/02 02:16:30;;;;;;;;;;;8.70;99.90;;;;;;2055768;28;19913;-74
2024/03/02 02:17:31;;;;;;;;;;;8.70;99.90;;;;;;2055836;28;19921;-74
2024/03/02 02:18:32;;;;;;;;;;;8.70;99.90;;;;;;2059999;28;19920;-74
2024/03/02 02:19:32;;;;;;;;;;;8.70;99.90;;;;;;2059669;28;19914;-75
2024/03/02 02:20:33;;;;;;;;;;;8.70;99.90;;;;;;2059789;28;20391;-75
2024/03/02 02:21:34;;;;;;;;;;;8.70;99.90;;;;;;2059660;28;19914;-74
2024/03/02 02:22:34;;;;;;;;;;;8.70;99.90;;;;;;2059195;28;19914;-75
2024/03/02 02:23:35;;;;;;;;;;;8.70;99.90;;;;;;2050885;28;19921;-75
2024/03/02 02:24:35;;;;;;;;;;;8.70;99.90;;;;;;2059410;28;19964;-75
2024/03/02 02:25:35;;;;;;;;;;;8.70;99.90;;;;;;2059672;28;19914;-74
2024/03/02 02:26:36;;;;;;;;;;;8.70;99.90;;;;;;2059491;28;19910;-75
2024/03/02 02:27:37;;;;;;;;;;;8.60;99.90;;;;;;2059642;28;20394;-75
2024/03/02 02:28:38;;;;;;;;;;;8.70;99.90;;;;;;2059566;28;19952;-75
2024/03/02 02:29:38;;;;;;;;;;;8.70;99.90;;;;;;2059856;28;19920;-74
2024/03/02 02:30:38;;;;;;;;;;;8.60;99.90;;;;;;2059087;28;19967;-74
2024/03/02 02:31:39;;;;;;;;;;;8.60;99.90;;;;;;2053548;28;20212;-74
2024/03/02 02:32:40;;;;;;;;;;;8.60;99.90;;;;;;2051202;28;20000;-74
2024/03/02 02:33:40;;;;;;;;;;;8.60;99.90;;;;;;2058906;28;20370;-74
2024/03/02 02:34:41;;;;;;;;;;;8.70;99.90;;;;;;2059830;28;20228;-74
2024/03/02 02:35:42;;;;;;;;;;;8.70;99.90;;;;;;2059640;28;19948;-74
2024/03/02 02:36:42;;;;;;;;;;;8.70;99.90;;;;;;2059696;28;19910;-74
2024/03/02 02:37:44;;;;;;;;;;;8.70;99.90;;;;;;2059305;28;20048;-74
2024/03/02 02:38:46;;;;;;;;;;;8.70;99.90;;;;;;2058399;28;19976;-74
2024/03/02 02:39:47;;;;;;;;;;;8.70;99.90;;;;;;2057314;28;19913;-74
2024/03/02 02:40:47;;;;;;;;;;;8.70;99.90;;;;;;2059381;28;19920;-74
2024/03/02 02:41:48;;;;;;;;;;;8.60;99.90;;;;;;2060058;28;19942;-74
2024/03/02 02:42:49;;;;;;;;;;;8.60;99.90;;;;;;2056737;28;19913;-74
2024/03/02 02:43:50;;;;;;;;;;;8.60;99.90;;;;;;2056809;28;19917;-74
2024/03/02 02:44:50;;;;;;;;;;;8.70;99.90;;;;;;2046383;28;19914;-75
2024/03/02 02:45:50;;;;;;;;;;;8.70;99.90;;;;;;2056271;28;19906;-75
2024/03/02 02:46:51;;;;;;;;;;;8.70;99.90;;;;;;2057469;28;20224;-75
2024/03/02 02:47:51;;;;;;;;;;;8.80;99.90;;;;;;2059440;28;20270;-75
2024/03/02 02:48:53;;;;;;;;;;;8.70;99.90;;;;;;2059712;28;19956;-75
2024/03/02 02:49:53;;;;;;;;;;;8.70;99.90;;;;;;2059848;28;19956;-76
2024/03/02 02:50:54;;;;;;;;;;;8.60;99.90;;;;;;2059533;28;19909;-75
2024/03/02 02:51:54;;;;;;;;;;;8.60;99.90;;;;;;2059497;28;20224;-75
2024/03/02 02:52:55;;;;;;;;;;;8.60;99.90;;;;;;2057623;28;19913;-76
2024/03/02 02:53:55;;;;;;;;;;;8.60;99.90;;;;;;2057674;28;19924;-75
2024/03/02 02:54:56;;;;;;;;;;;8.70;99.90;;;;;;2059340;28;20276;-75
2024/03/02 02:55:56;;;;;;;;;;;8.60;99.90;;;;;;2059730;28;19918;-76
2024/03/02 02:56:57;;;;;;;;;;;8.60;99.90;;;;;;2059382;28;19963;-73
2024/03/02 02:57:57;;;;;;;;;;;8.60;99.90;;;;;;2059191;28;20307;-73
2024/03/02 02:58:58;;;;;;;;;;;8.60;99.90;;;;;;2055886;28;19921;-74
2024/03/02 02:59:58;;;;;;;;;;;8.60;99.90;;;;;;2059045;28;20545;-74
2024/03/02 03:00:59;;;;;;;;;;;8.60;99.90;;;;;;2056323;28;20415;-74
2024/03/02 03:01:59;;;;;;;;;;;8.60;99.90;;;;;;2058627;28;20400;-74
2024/03/02 03:03:00;;;;;;;;;;;8.60;99.90;;;;;;2059711;28;19910;-73
2024/03/02 03:04:00;;;;;;;;;;;8.60;99.90;;;;;;2057446;28;19910;-73
2024/03/02 03:05:01;;;;;;;;;;;8.60;99.90;;;;;;2057149;28;19980;-73
2024/03/02 03:06:02;;;;;;;;;;;8.60;99.90;;;;;;2058877;28;20378;-73
2024/03/02 03:07:02;;;;;;;;;;;8.60;99.90;;;;;;2057256;28;19941;-74
2024/03/02 03:08:03;;;;;;;;;;;8.70;99.90;;;;;;2058346;28;19913;-74
2024/03/02 03:09:03;;;;;;;;;;;8.70;99.90;;;;;;2058687;28;19918;-73
2024/03/02 03:10:04;;;;;;;;;;;8.60;99.90;;;;;;2055536;28;20816;-73
2024/03/02 03:11:05;;;;;;;;;;;8.70;99.90;;;;;;2056955;28;19918;-73
2024/03/02 03:12:05;;;;;;;;;;;8.70;99.90;;;;;;2058723;28;19917;-73
2024/03/02 03:13:07;;;;;;;;;;;8.70;99.90;;;;;;2055630;28;20371;-74
2024/03/02 03:14:08;;;;;;;;;;;8.70;99.90;;;;;;2056657;28;20201;-74
2024/03/02 03:15:09;;;;;;;;;;;8.70;99.90;;;;;;2059638;28;20388;-74
2024/03/02 03:16:09;;;;;;;;;;;8.70;99.90;;;;;;2059656;28;19921;-74
2024/03/02 03:17:10;;;;;;;;;;;8.70;99.90;;;;;;2059621;28;19969;-74
2024/03/02 03:18:10;;;;;;;;;;;8.70;99.90;;;;;;2055171;28;20347;-74
2024/03/02 03:19:11;;;;;;;;;;;8.70;99.90;;;;;;2058545;28;19989;-74
2024/03/02 03:20:12;;;;;;;;;;;8.60;99.90;;;;;;2059653;28;19914;-74
2024/03/02 03:21:12;;;;;;;;;;;8.60;99.90;;;;;;2058720;28;20486;-74
2024/03/02 03:22:13;;;;;;;;;;;8.70;99.90;;;;;;2058873;28;19913;-74
2024/03/02 03:23:17;;;;;;;;;;;8.60;99.90;;;;;;2054900;28;20004;-75
2024/03/02 03:24:17;;;;;;;;;;;8.70;99.90;;;;;;2055838;28;19953;-74
2024/03/02 03:25:17;;;;;;;;;;;8.70;99.90;;;;;;2055757;28;19914;-73
2024/03/02 03:26:18;;;;;;;;;;;8.70;99.90;;;;;;2050430;28;19914;-75
2024/03/02 03:27:22;;;;;;;;;;;8.70;99.90;;;;;;2051039;28;20040;-73
2024/03/02 03:28:22;;;;;;;;;;;8.60;99.90;;;;;;2053571;28;20340;-75
2024/03/02 03:29:23;;;;;;;;;;;8.60;99.90;;;;;;2061287;28;19913;-74
2024/03/02 03:30:23;;;;;;;;;;;8.60;99.90;;;;;;2060011;28;20272;-72
2024/03/02 03:31:24;;;;;;;;;;;8.60;99.90;;;;;;2052430;28;19964;-73
2024/03/02 03:32:24;;;;;;;;;;;8.60;99.90;;;;;;2056323;28;20391;-75
2024/03/02 03:33:25;;;;;;;;;;;8.60;99.90;;;;;;2057099;28;19920;-75
2024/03/02 03:34:27;;;;;;;;;;;8.60;99.90;;;;;;2060172;28;20028;-75
2024/03/02 03:35:27;;;;;;;;;;;8.60;99.90;;;;;;2061167;28;20376;-74
2024/03/02 03:36:28;;;;;;;;;;;8.60;99.90;;;;;;2059737;28;19924;-75
2024/03/02 03:37:32;;;;;;;;;;;8.50;99.90;;;;;;2057841;28;20028;-75
2024/03/02 03:38:33;;;;;;;;;;;8.50;99.90;;;;;;2061216;28;20406;-75
2024/03/02 03:39:34;;;;;;;;;;;8.50;99.90;;;;;;2060791;28;19961;-75
2024/03/02 03:40:34;;;;;;;;;;;8.60;99.90;;;;;;2061135;28;19920;-74
2024/03/02 03:41:35;;;;;;;;;;;8.50;99.90;;;;;;2060895;28;20352;-74
2024/03/02 03:42:36;;;;;;;;;;;8.60;99.90;;;;;;2060970;28;19905;-74
2024/03/02 03:43:37;;;;;;;;;;;8.50;99.90;;;;;;2056831;28;20356;-74
2024/03/02 03:44:39;;;;;;;;;;;8.50;99.90;;;;;;2060935;28;20008;-75
2024/03/02 03:45:39;;;;;;;;;;;8.50;99.90;;;;;;2060443;28;20335;-76
2024/03/02 03:46:40;;;;;;;;;;;8.60;99.90;;;;;;2060146;28;19913;-76
2024/03/02 03:47:40;;;;;;;;;;;8.60;99.90;;;;;;2060861;28;19906;-76
2024/03/02 03:48:41;;;;;;;;;;;8.60;99.90;;;;;;2056956;28;19997;-76
2024/03/02 03:49:42;;;;;;;;;;;8.60;99.90;;;;;;2057619;28;19909;-76
2024/03/02 03:50:42;;;;;;;;;;;8.60;99.90;;;;;;2058569;28;20328;-76
2024/03/02 03:51:43;;;;;;;;;;;8.60;99.90;;;;;;2061039;28;19984;-76
2024/03/02 03:52:43;;;;;;;;;;;8.60;99.90;;;;;;2056983;28;20813;-76
2024/03/02 03:53:44;;;;;;;;;;;8.70;99.90;;;;;;2060628;28;19972;-75
2024/03/02 03:54:44;;;;;;;;;;;8.60;99.90;;;;;;2061105;28;19918;-75
2024/03/02 03:55:46;;;;;;;;;;;8.60;99.90;;;;;;2057817;28;19914;-75
2024/03/02 03:56:47;;;;;;;;;;;8.60;99.90;;;;;;2059239;28;19913;-75
2024/03/02 03:57:47;;;;;;;;;;;8.60;99.90;;;;;;2059799;28;20376;-75
2024/03/02 03:58:48;;;;;;;;;;;8.60;99.90;;;;;;2061063;28;20359;-76
2024/03/02 03:59:48;;;;;;;;;;;8.60;99.90;;;;;;2060765;28;19914;-74
2024/03/02 04:00:49;;;;;;;;;;;8.60;99.90;;;;;;2060585;28;19937;-75
2024/03/02 04:01:49;;;;;;;;;;;8.60;99.90;;;;;;2056917;28;19917;-74
2024/03/02 04:02:50;;;;;;;;;;;8.60;99.90;;;;;;2059961;28;20399;-74
2024/03/02 04:03:50;;;;;;;;;;;8.50;99.90;;;;;;2060322;28;19921;-75
2024/03/02 04:04:51;;;;;;;;;;;8.50;99.90;;;;;;2060670;28;19921;-74
2024/03/02 04:05:51;;;;;;;;;;;8.50;99.90;;;;;;2060995;28;20365;-75
2024/03/02 04:06:52;;;;;;;;;;;8.50;99.90;;;;;;2060919;28;20013;-74
2024/03/02 04:07:52;;;;;;;;;;;8.50;99.90;;;;;;2059720;28;19945;-74
2024/03/02 04:08:52;;;;;;;;;;;8.50;99.90;;;;;;2060442;28;19976;-74
2024/03/02 04:09:53;;;;;;;;;;;8.50;99.90;;;;;;2059784;28;20097;-74
2024/03/02 04:10:53;;;;;;;;;;;8.50;99.90;;;;;;2060209;28;20000;-74
2024/03/02 04:11:54;;;;;;;;;;;8.50;99.90;;;;;;2052813;28;20376;-75
2024/03/02 04:12:54;;;;;;;;;;;8.50;99.90;;;;;;2051285;28;19918;-74
2024/03/02 04:13:55;;;;;;;;;;;8.50;99.90;;;;;;2056704;28;19914;-74
2024/03/02 04:14:55;;;;;;;;;;;8.50;99.90;;;;;;2051486;28;19914;-75
2024/03/02 04:15:56;;;;;;;;;;;8.50;99.90;;;;;;2036149;29;20337;-76
2024/03/02 04:16:56;;;;;;;;;;;8.50;99.90;;;;;;2052023;28;20451;-75
2024/03/02 04:17:57;;;;;;;;;;;8.50;99.90;;;;;;2051200;28;19929;-76
2024/03/02 04:18:57;;;;;;;;;;;8.50;99.90;;;;;;2044028;29;19973;-75
2024/03/02 04:19:58;;;;;;;;;;;8.50;99.90;;;;;;2059858;28;20466;-75
2024/03/02 04:20:59;;;;;;;;;;;8.50;99.90;;;;;;2060757;28;19914;-75
2024/03/02 04:21:59;;;;;;;;;;;8.50;99.90;;;;;;2055924;28;19920;-74
2024/03/02 04:23:00;;;;;;;;;;;8.50;99.90;;;;;;2059835;28;19920;-74
2024/03/02 04:24:00;;;;;;;;;;;8.40;99.90;;;;;;2060683;28;19960;-74
2024/03/02 04:25:01;;;;;;;;;;;8.40;99.90;;;;;;2060027;28;19960;-75
2024/03/02 04:26:02;;;;;;;;;;;8.40;99.90;;;;;;2055980;28;19910;-74
2024/03/02 04:27:02;;;;;;;;;;;8.40;99.90;;;;;;2060789;28;19910;-75
2024/03/02 04:28:03;;;;;;;;;;;8.50;99.90;;;;;;2057190;28;19914;-75
2024/03/02 04:29:03;;;;;;;;;;;8.50;99.90;;;;;;2060705;28;19968;-75
2024/03/02 04:30:05;;;;;;;;;;;8.50;99.90;;;;;;2056184;28;19921;-75
2024/03/02 04:31:05;;;;;;;;;;;8.50;99.90;;;;;;2059585;28;20537;-73
2024/03/02 04:32:06;;;;;;;;;;;8.50;99.90;;;;;;2059889;28;19914;-73
2024/03/02 04:33:09;;;;;;;;;;;8.50;99.90;;;;;;2055470;28;20541;-73
2024/03/02 04:34:10;;;;;;;;;;;8.50;99.90;;;;;;2057520;28;19968;-74
2024/03/02 04:35:11;;;;;;;;;;;8.40;99.90;;;;;;2060789;28;20016;-74
2024/03/02 04:36:11;;;;;;;;;;;8.40;99.90;;;;;;2056207;28;19910;-73
2024/03/02 04:37:15;;;;;;;;;;;8.40;99.90;;;;;;2060656;28;19988;-74
2024/03/02 04:38:15;;;;;;;;;;;8.40;99.90;;;;;;2058484;28;19922;-73
2024/03/02 04:39:16;;;;;;;;;;;8.40;99.90;;;;;;2055957;28;20454;-75
2024/03/02 04:40:16;;;;;;;;;;;8.40;99.90;;;;;;2057391;28;20111;-75
2024/03/02 04:41:17;;;;;;;;;;;8.40;99.90;;;;;;2059935;28;20113;-76
2024/03/02 04:42:17;;;;;;;;;;;8.50;99.90;;;;;;2059881;28;19913;-74
2024/03/02 04:43:19;;;;;;;;;;;8.50;99.90;;;;;;2060359;28;19913;-76
2024/03/02 04:44:19;;;;;;;;;;;8.40;99.90;;;;;;2060769;28;20005;-76
2024/03/02 04:45:20;;;;;;;;;;;8.40;99.90;;;;;;2060477;28;19914;-76
2024/03/02 04:46:20;;;;;;;;;;;8.30;99.90;;;;;;2060336;28;19910;-74
2024/03/02 04:47:20;;;;;;;;;;;8.20;99.90;;;;;;2060573;28;19905;-74
2024/03/02 04:48:22;;;;;;;;;;;8.20;99.90;;;;;;2059553;28;19948;-73
2024/03/02 04:49:22;;;;;;;;;;;8.20;99.90;;;;;;2059938;28;19909;-76
2024/03/02 04:50:23;;;;;;;;;;;8.30;99.90;;;;;;2056589;28;19945;-78
2024/03/02 04:51:23;;;;;;;;;;;8.30;99.90;;;;;;2060699;28;20451;-84
2024/03/02 04:52:23;;;;;;;;;;;8.30;99.90;;;;;;2056809;28;20004;-75
2024/03/02 04:53:25;;;;;;;;;;;8.30;99.90;;;;;;2060511;28;19921;-74
2024/03/02 04:54:25;;;;;;;;;;;8.30;99.90;;;;;;2061388;28;19914;-84
2024/03/02 04:57:32;;;;;;;;;;;8.30;99.90;;;;;;2065493;28;19916;-84
2024/03/02 04:58:33;;;;;;;;;;;8.30;99.90;;;;;;2059336;28;20303;-84
2024/03/02 04:59:33;;;;;;;;;;;8.30;99.90;;;;;;2062533;28;19913;-84
2024/03/02 05:00:34;;;;;;;;;;;8.30;99.90;;;;;;2063088;28;19913;-84
2024/03/02 05:01:34;;;;;;;;;;;8.30;99.90;;;;;;2059163;28;20169;-83
2024/03/02 05:02:35;;;;;;;;;;;8.30;99.90;;;;;;2063238;28;19914;-83
2024/03/02 05:03:35;;;;;;;;;;;8.30;99.90;;;;;;2062214;28;19910;-83
2024/03/02 05:04:36;;;;;;;;;;;8.30;99.90;;;;;;2059871;28;19968;-83
2024/03/02 05:05:38;;;;;;;;;;;8.30;99.90;;;;;;2061796;28;19916;-84
2024/03/02 05:06:40;;;;;;;;;;;8.40;99.90;;;;;;2061202;28;19920;-84
2024/03/02 05:07:42;;;;;;;;;;;8.40;99.90;;;;;;2057686;28;19949;-82
2024/03/02 05:08:44;;;;;;;;;;;8.40;99.90;;;;;;2058669;28;19917;-84
2024/03/02 05:09:45;;;;;;;;;;;8.40;99.90;;;;;;2058327;28;20387;-84
2024/03/02 05:10:45;;;;;;;;;;;8.40;99.90;;;;;;2062753;28;19917;-85
2024/03/02 05:11:59;;;;;;;;;;;8.40;99.90;;;;;;2062386;28;19914;-84
2024/03/02 05:12:59;;;;;;;;;;;8.40;99.90;;;;;;2058794;28;19918;-85
2024/03/02 05:14:00;;;;;;;;;;;8.40;99.90;;;;;;2060586;28;20201;-82
2024/03/02 05:15:00;;;;;;;;;;;8.40;99.90;;;;;;2062216;28;20338;-84
2024/03/02 05:16:01;;;;;;;;;;;8.50;99.90;;;;;;2061808;28;19921;-85
2024/03/02 05:17:01;;;;;;;;;;;8.50;99.90;;;;;;2053882;28;20270;-84
2024/03/02 05:18:05;;;;;;;;;;;8.50;99.90;;;;;;2058425;28;19945;-83
2024/03/02 05:19:08;;;;;;;;;;;8.50;99.90;;;;;;2053583;28;19910;-83
2024/03/02 05:20:09;;;;;;;;;;;8.40;99.90;;;;;;2062882;28;20438;-84
2024/03/02 05:21:11;;;;;;;;;;;8.50;99.90;;;;;;2062210;28;20137;-83
2024/03/02 05:22:11;;;;;;;;;;;8.50;99.90;;;;;;2061972;28;20356;-83
2024/03/02 05:23:12;;;;;;;;;;;8.50;99.90;;;;;;2058075;28;19910;-84
2024/03/02 05:24:13;;;;;;;;;;;8.40;99.90;;;;;;2060963;28;19956;-84
2024/03/02 05:25:13;;;;;;;;;;;8.50;99.90;;;;;;2058510;28;19913;-84
2024/03/02 05:26:14;;;;;;;;;;;8.50;99.90;;;;;;2060361;28;19918;-84
2024/03/02 05:27:14;;;;;;;;;;;8.50;99.90;;;;;;2054254;28;20238;-83
2024/03/02 05:28:15;;;;;;;;;;;8.50;99.90;;;;;;2063778;28;19948;-83
2024/03/02 05:29:15;;;;;;;;;;;8.50;99.90;;;;;;2063837;28;19968;-83
2024/03/02 05:30:16;;;;;;;;;;;8.50;99.90;;;;;;2063853;28;19913;-83
2024/03/02 05:31:16;;;;;;;;;;;8.50;99.90;;;;;;2057404;28;19910;-83
2024/03/02 05:32:17;;;;;;;;;;;8.60;99.90;;;;;;2063372;28;20222;-84
2024/03/02 05:33:17;;;;;;;;;;;8.60;99.90;;;;;;2062787;28;19910;-83
2024/03/02 05:34:18;;;;;;;;;;;8.60;99.90;;;;;;2059823;28;19909;-80
2024/03/02 05:35:18;;;;;;;;;;;8.60;99.90;;;;;;2063253;28;20396;-82
2024/03/02 05:36:20;;;;;;;;;;;8.70;99.90;;;;;;2062369;28;19952;-83
2024/03/02 05:37:21;;;;;;;;;;;8.60;99.90;;;;;;2059260;28;19909;-82
2024/03/02 05:38:21;;;;;;;;;;;8.70;99.90;;;;;;2059175;28;19964;-82
2024/03/02 05:39:22;;;;;;;;;;;8.70;99.90;;;;;;2061685;28;19960;-84
2024/03/02 05:40:22;;;;;;;;;;;8.70;99.90;;;;;;2058629;28;20003;-83
2024/03/02 05:41:23;;;;;;;;;;;8.70;99.90;;;;;;2061645;28;20311;-83
2024/03/02 05:42:23;;;;;;;;;;;8.70;99.90;;;;;;2061040;28;19913;-83
2024/03/02 05:43:24;;;;;;;;;;;8.70;99.90;;;;;;2060934;28;19920;-84
2024/03/02 05:44:24;;;;;;;;;;;8.70;99.90;;;;;;2060576;28;19936;-82
2024/03/02 05:45:25;;;;;;;;;;;8.70;99.90;;;;;;2060073;28;20000;-83
2024/03/02 05:46:25;;;;;;;;;;;8.70;99.90;;;;;;2060180;28;20386;-83
2024/03/02 05:47:26;;;;;;;;;;;8.70;99.90;;;;;;2060334;28;19920;-84
2024/03/02 05:48:26;;;;;;;;;;;8.60;99.90;;;;;;2060574;28;19918;-82
2024/03/02 05:49:27;;;;;;;;;;;8.60;99.90;;;;;;2054808;28;19918;-82
2024/03/02 05:50:27;;;;;;;;;;;8.60;99.90;;;;;;2057812;28;20269;-82
2024/03/02 05:51:27;;;;;;;;;;;8.60;99.90;;;;;;2060278;28;19961;-83
2024/03/02 05:52:28;;;;;;;;;;;8.60;99.90;;;;;;2060680;28;19910;-82
2024/03/02 05:53:29;;;;;;;;;;;8.60;99.90;;;;;;2060787;28;20319;-82
2024/03/02 05:54:29;;;;;;;;;;;8.60;99.90;;;;;;2055248;28;20066;-83
2024/03/02 05:55:30;;;;;;;;;;;8.60;99.90;;;;;;2056250;28;19945;-83
2024/03/02 05:56:32;;;;;;;;;;;8.60;99.90;;;;;;2058074;28;19934;-83
2024/03/02 06:00:07;;;;;;;;;;;8.60;99.90;;;;;;2058660;28;20004;-83
2024/03/02 06:01:13;;;;;;;;;;;8.60;99.90;;;;;;2057257;28;20379;-82
2024/03/02 06:02:13;;;;;;;;;;;8.60;99.90;;;;;;2059831;28;20005;-82
2024/03/02 06:03:14;;;;;;;;;;;8.50;99.90;;;;;;2056152;28;20412;-82
2024/03/02 06:04:14;;;;;;;;;;;8.60;99.90;;;;;;2058921;28;19920;-83
2024/03/02 06:05:15;;;;;;;;;;;8.50;99.90;;;;;;2060275;28;19917;-82